createdAt,value
2019-05-17T00:01:10.428Z,23.98
2019-05-17T00:06:18.333Z,25.37
2019-05-17T00:11:27.361Z,20.97
2019-05-17T00:16:37.341Z,20.97
2019-05-17T00:21:43.864Z,20.73
2019-05-17T00:26:51.063Z,16.50
2019-05-17T00:31:58.273Z,17.00
2019-05-17T00:37:06.985Z,14.10
2019-05-17T00:42:17.024Z,12.93
2019-05-17T00:47:26.424Z,11.47
2019-05-17T00:52:33.188Z,12.13
2019-05-17T00:57:40.267Z,12.87
2019-05-17T01:02:47.735Z,11.93
2019-05-17T01:07:57.223Z,11.77
2019-05-17T01:13:06.542Z,11.67
2019-05-17T01:18:16.136Z,11.13
2019-05-17T01:23:23.148Z,11.27
2019-05-17T01:28:30.338Z,10.23
2019-05-17T01:33:37.727Z,9.97
2019-05-17T01:38:46.882Z,9.10
2019-05-17T01:43:53.915Z,8.37
2019-05-17T01:49:01.247Z,7.72
2019-05-17T01:54:08.558Z,7.97
2019-05-17T01:59:17.275Z,7.87
2019-05-17T02:04:26.678Z,6.40
2019-05-17T02:09:38.550Z,5.10
2019-05-17T02:14:43.255Z,4.13
2019-05-17T02:19:50.330Z,3.40
2019-05-17T02:24:57.795Z,3.73
2019-05-17T02:30:05.855Z,3.63
2019-05-17T02:35:14.601Z,4.57
2019-05-17T02:40:22.663Z,3.45
2019-05-17T02:45:32.740Z,4.10
2019-05-17T02:50:38.959Z,4.85
2019-05-17T02:55:46.161Z,4.20
2019-05-17T03:00:53.582Z,4.33
2019-05-17T03:06:03.063Z,4.67
2019-05-17T03:11:09.349Z,5.60
2019-05-17T03:16:16.420Z,6.20
2019-05-17T03:21:23.612Z,5.67
2019-05-17T03:26:32.820Z,6.00
2019-05-17T03:31:44.848Z,4.40
2019-05-17T03:36:48.840Z,5.07
2019-05-17T03:41:56.017Z,5.43
2019-05-17T03:47:03.075Z,6.17
2019-05-17T03:52:13.296Z,7.10
2019-05-17T03:57:19.148Z,7.70
2019-05-17T04:02:26.302Z,9.37
2019-05-17T04:07:33.374Z,8.80
2019-05-17T04:12:43.630Z,8.47
2019-05-17T04:17:52.687Z,8.53
2019-05-17T04:23:04.039Z,8.37
2019-05-17T04:28:13.386Z,8.13
2019-05-17T04:33:18.508Z,9.23
2019-05-17T04:38:25.599Z,20.93
2019-05-17T04:43:33.615Z,11.67
2019-05-17T04:48:43.839Z,14.43
2019-05-17T04:53:52.732Z,13.97
2019-05-17T04:59:02.913Z,15.67
2019-05-17T05:04:08.238Z,14.50
2019-05-17T05:09:16.804Z,15.32
2019-05-17T05:14:23.908Z,14.10
2019-05-17T05:19:32.903Z,16.63
2019-05-17T05:24:42.297Z,14.70
2019-05-17T05:29:49.181Z,18.33
2019-05-17T05:34:56.498Z,23.53
2019-05-17T05:40:03.695Z,18.47
2019-05-17T05:45:12.100Z,14.83
2019-05-17T05:50:21.706Z,18.63
2019-05-17T05:55:31.965Z,9.47
2019-05-17T06:00:38.196Z,9.90
2019-05-17T06:05:45.333Z,8.43
2019-05-17T06:10:53.076Z,7.87
2019-05-17T06:16:02.755Z,6.80
2019-05-17T06:21:12.113Z,6.73
2019-05-17T06:26:18.892Z,7.00
2019-05-17T06:31:37.997Z,7.30
2019-05-17T06:36:45.126Z,9.00
2019-05-17T06:41:52.328Z,6.43
2019-05-17T06:47:02.636Z,7.13
2019-05-17T06:52:11.525Z,7.73
2019-05-17T06:57:18.006Z,6.03
2019-05-17T07:02:25.106Z,6.40
2019-05-17T07:07:32.188Z,11.37
2019-05-17T07:12:54.540Z,15.77
2019-05-17T07:17:50.271Z,12.80
2019-05-17T07:22:59.901Z,17.23
2019-05-17T07:28:09.756Z,19.77
2019-05-17T07:33:19.767Z,19.13
2019-05-17T07:38:26.365Z,16.03
2019-05-17T07:43:33.760Z,27.50
2019-05-17T07:48:40.862Z,13.67
2019-05-17T07:53:49.515Z,20.43
2019-05-17T07:58:56.888Z,15.47
2019-05-17T08:04:04.356Z,18.37
2019-05-17T08:09:13.738Z,18.50
2019-05-17T08:14:30.101Z,23.98
2019-05-17T08:19:29.899Z,12.30
2019-05-17T08:24:37.060Z,13.57
2019-05-17T08:29:45.363Z,33.90
2019-05-17T08:34:53.756Z,15.17
2019-05-17T08:40:02.161Z,15.80
2019-05-17T08:45:10.533Z,26.53
2019-05-17T08:50:20.059Z,23.53
2019-05-17T08:55:27.742Z,23.93
2019-05-17T09:00:35.993Z,23.00
2019-05-17T09:05:43.087Z,21.07
2019-05-17T09:10:50.715Z,21.00
2019-05-17T09:16:00.037Z,17.13
2019-05-17T09:21:06.779Z,17.93
2019-05-17T09:26:13.951Z,22.23
2019-05-17T09:31:21.161Z,19.85
2019-05-17T09:36:30.271Z,16.63
2019-05-17T09:41:39.596Z,14.73
2019-05-17T09:46:45.830Z,14.33
2019-05-17T09:51:53.760Z,18.63
2019-05-17T09:57:00.992Z,17.53
2019-05-17T10:02:09.519Z,23.90
2019-05-17T10:07:16.851Z,19.63
2019-05-17T10:12:25.187Z,16.47
2019-05-17T10:17:33.660Z,18.73
2019-05-17T10:22:40.786Z,16.50
2019-05-17T10:27:49.891Z,14.73
2019-05-17T10:32:59.799Z,16.23
2019-05-17T10:38:06.212Z,11.57
2019-05-17T10:43:13.342Z,13.97
2019-05-17T10:48:21.181Z,13.13
2019-05-17T10:53:29.828Z,9.43
2019-05-17T10:58:39.744Z,9.43
2019-05-17T11:03:46.073Z,10.37
2019-05-17T11:08:53.321Z,17.82
2019-05-17T11:14:00.640Z,15.13
2019-05-17T11:19:08.842Z,14.07
2019-05-17T11:24:16.152Z,11.83
2019-05-17T11:29:23.300Z,8.97
2019-05-17T11:34:30.382Z,7.07
2019-05-17T11:39:38.013Z,6.37
2019-05-17T11:44:45.476Z,3.67
2019-05-17T11:49:52.639Z,17.87
2019-05-17T11:54:59.857Z,7.00
2019-05-17T12:00:08.012Z,6.47
2019-05-17T12:05:15.968Z,11.60
2019-05-17T12:10:25.300Z,9.33
2019-05-17T12:15:44.283Z,9.50
2019-05-17T12:20:41.674Z,7.27
2019-05-17T12:25:48.859Z,9.17
2019-05-17T12:30:55.949Z,8.07
2019-05-17T12:36:03.066Z,7.87
2019-05-17T12:41:10.251Z,9.20
2019-05-17T12:46:17.748Z,8.33
2019-05-17T12:51:26.123Z,24.23
2019-05-17T12:56:34.540Z,13.97
2019-05-17T13:01:42.920Z,10.33
2019-05-17T13:06:51.269Z,14.67
2019-05-17T13:11:58.398Z,9.30
2019-05-17T13:17:05.996Z,15.77
2019-05-17T13:22:14.360Z,12.43
2019-05-17T13:27:21.679Z,8.53
2019-05-17T13:32:29.028Z,10.37
2019-05-17T13:37:36.270Z,12.63
2019-05-17T13:42:43.820Z,9.10
2019-05-17T13:47:50.978Z,11.03
2019-05-17T13:52:58.149Z,10.53
2019-05-17T13:58:05.885Z,10.20
2019-05-17T14:03:13.285Z,22.25
2019-05-17T14:08:20.354Z,21.13
2019-05-17T14:13:27.777Z,17.33
2019-05-17T14:18:34.878Z,14.90
2019-05-17T14:23:41.998Z,21.13
2019-05-17T14:28:49.076Z,18.73
2019-05-17T14:33:56.277Z,20.93
2019-05-17T14:39:04.920Z,56.03
2019-05-17T14:44:13.159Z,76.77
2019-05-17T14:49:20.250Z,16.07
2019-05-17T14:54:27.329Z,10.53
2019-05-17T14:59:34.433Z,11.50
2019-05-17T15:04:41.541Z,18.57
2019-05-17T15:09:48.965Z,14.27
2019-05-17T15:14:56.143Z,12.63
2019-05-17T15:20:03.502Z,10.37
2019-05-17T15:25:10.884Z,7.77
2019-05-17T15:30:18.207Z,11.30
2019-05-17T15:35:25.343Z,10.10
2019-05-17T15:40:32.733Z,11.40
2019-05-17T15:45:39.893Z,23.43
2019-05-17T15:50:47.127Z,67.00
2019-05-17T15:55:54.188Z,21.40
2019-05-17T16:01:01.469Z,13.40
2019-05-17T16:06:08.536Z,21.60
2019-05-17T16:11:15.845Z,27.43
2019-05-17T16:16:22.984Z,35.60
2019-05-17T16:21:30.120Z,28.43
2019-05-17T16:26:37.725Z,20.53
2019-05-17T16:31:44.837Z,27.77
2019-05-17T16:36:52.001Z,35.13
2019-05-17T16:41:59.376Z,27.50
2019-05-17T16:47:06.785Z,20.80
2019-05-17T16:52:13.882Z,27.63
2019-05-17T16:57:21.097Z,32.65
2019-05-17T17:02:29.064Z,31.77
2019-05-17T17:07:36.153Z,82.80
2019-05-17T17:12:43.307Z,77.40
2019-05-17T17:17:50.836Z,46.60
2019-05-17T17:22:58.241Z,41.93
2019-05-17T17:28:06.329Z,32.67
2019-05-17T17:33:17.406Z,47.00
2019-05-17T17:38:23.901Z,45.80
2019-05-17T17:43:31.446Z,40.30
2019-05-17T17:48:39.634Z,35.13
2019-05-17T17:53:47.061Z,40.67
2019-05-17T17:58:54.122Z,56.00
2019-05-17T18:04:02.048Z,56.50
2019-05-17T18:09:09.245Z,53.17
2019-05-17T18:14:16.346Z,50.30
2019-05-17T18:19:23.532Z,43.93
2019-05-17T18:24:31.505Z,58.03
2019-05-17T18:29:38.628Z,47.77
2019-05-17T18:34:45.709Z,60.53
2019-05-17T18:39:53.127Z,53.13
2019-05-17T18:45:11.817Z,68.37
2019-05-17T18:50:19.584Z,51.63
2019-05-17T18:55:26.849Z,62.50
2019-05-17T19:00:34.138Z,58.57
2019-05-17T19:05:41.475Z,68.20
2019-05-17T19:10:48.652Z,68.53
2019-05-17T19:15:55.743Z,69.07
2019-05-17T19:21:02.820Z,62.13
2019-05-17T19:26:09.971Z,70.67
2019-05-17T19:31:17.126Z,63.00
2019-05-17T19:36:24.228Z,70.47
2019-05-17T19:41:31.408Z,61.90
2019-05-17T19:46:38.595Z,62.00
2019-05-17T19:51:45.841Z,82.33
2019-05-17T19:56:53.050Z,71.43
2019-05-17T20:02:00.148Z,70.12
2019-05-17T20:07:07.736Z,55.07
2019-05-17T20:12:14.832Z,53.77
2019-05-17T20:17:22.108Z,53.00
2019-05-17T20:22:29.638Z,55.83
2019-05-17T20:27:37.000Z,48.80
2019-05-17T20:32:44.329Z,66.17
2019-05-17T20:37:51.453Z,73.00
2019-05-17T20:42:58.753Z,60.17
2019-05-17T20:48:06.030Z,45.80
2019-05-17T20:53:18.825Z,43.83
2019-05-17T20:58:22.499Z,45.57
2019-05-17T21:03:29.560Z,46.37
2019-05-17T21:08:45.731Z,54.80
2019-05-17T21:13:45.584Z,45.93
2019-05-17T21:18:52.693Z,53.73
2019-05-17T21:23:59.769Z,53.73
2019-05-17T21:29:06.969Z,51.97
2019-05-17T21:34:14.169Z,49.43
2019-05-17T21:39:21.368Z,68.15
2019-05-17T21:44:28.665Z,67.50
2019-05-17T21:49:35.731Z,56.73
2019-05-17T21:54:42.816Z,45.43
2019-05-17T21:59:49.909Z,47.07
2019-05-17T22:04:57.137Z,45.70
2019-05-17T22:10:04.372Z,62.03
2019-05-17T22:15:11.486Z,50.63
2019-05-17T22:20:18.605Z,47.47
2019-05-17T22:25:25.871Z,59.60
2019-05-17T22:30:32.972Z,56.65
2019-05-17T22:35:40.079Z,54.40
2019-05-17T22:40:47.841Z,51.30
2019-05-17T22:45:54.942Z,50.70
2019-05-17T22:51:02.037Z,54.13
2019-05-17T22:56:09.346Z,67.93
2019-05-17T23:01:16.497Z,71.17
2019-05-17T23:06:23.702Z,51.68
2019-05-17T23:11:30.998Z,60.17
2019-05-17T23:16:50.567Z,48.27
2019-05-17T23:21:46.900Z,64.17
2019-05-17T23:26:54.987Z,59.20
2019-05-17T23:32:02.089Z,62.67
2019-05-17T23:37:10.497Z,53.93
2019-05-17T23:42:17.837Z,52.98
2019-05-17T23:47:25.226Z,62.57
2019-05-17T23:52:32.293Z,63.00
2019-05-17T23:57:39.586Z,60.10
